DTW weather

Detroit Metropolitan Wayne County Airport
Detroit, Michigan, United States

Public forecast

Using degrees Fahrenheit for public forecast. Weather courtesy of forecast.io.

METAR (pilot weather report)

Retrieved 2019/01/21 11:53 UTC (2 hours ago):

KDTW 211153Z 29007KT 10SM CLR M21/M26 A3048 RMK AO2 SLP341 T12111261 11183 21211 53023 $

TAF (pilot weather forecast)

Retrieved 2019/01/21 12:22 UTC (1 hour ago):

TAF KDTW 211120Z 2112/2218 32008KT P6SM SKC FM211900 VRB05KT P6SM SKC FM220500 12006KT P6SM BKN150 FM221400 14014KT P6SM BKN200